sensor_id;sensor_type;location;lat;lon;timestamp;pressure;altitude;pressure_sealevel;temperature;humidity
3254;BME280;1639;42.804;23.342;2023-02-02T00:00:43;74112.03;;;-148.52;59.61
3254;BME280;1639;42.804;23.342;2023-02-02T00:03:08;74122.38;;;-148.52;59.73
3254;BME280;1639;42.804;23.342;2023-02-02T00:05:35;74116.16;;;-148.52;59.48
3254;BME280;1639;42.804;23.342;2023-02-02T00:08:01;74122.38;;;-148.52;59.63
3254;BME280;1639;42.804;23.342;2023-02-02T00:10:26;74126.50;;;-148.52;59.95
3254;BME280;1639;42.804;23.342;2023-02-02T00:12:52;74120.31;;;-148.52;60.23
3254;BME280;1639;42.804;23.342;2023-02-02T00:15:18;74126.50;;;-148.52;60.11
3254;BME280;1639;42.804;23.342;2023-02-02T00:17:44;74134.78;;;-148.52;60.30
3254;BME280;1639;42.804;23.342;2023-02-02T00:20:09;74136.84;;;-148.52;61.07
3254;BME280;1639;42.804;23.342;2023-02-02T00:22:35;74132.72;;;-148.52;61.96
3254;BME280;1639;42.804;23.342;2023-02-02T00:25:00;74136.84;;;-148.52;62.82
3254;BME280;1639;42.804;23.342;2023-02-02T00:27:26;74147.19;;;-148.52;66.02
3254;BME280;1639;42.804;23.342;2023-02-02T00:29:51;74143.06;;;-148.52;68.37
3254;BME280;1639;42.804;23.342;2023-02-02T00:32:18;74143.06;;;-148.52;69.58
3254;BME280;1639;42.804;23.342;2023-02-02T00:34:44;74147.19;;;-148.52;70.20
3254;BME280;1639;42.804;23.342;2023-02-02T00:37:09;74147.19;;;-148.52;71.14
3254;BME280;1639;42.804;23.342;2023-02-02T00:39:35;74149.25;;;-148.52;71.24
3254;BME280;1639;42.804;23.342;2023-02-02T00:42:00;74143.06;;;-148.52;71.17
3254;BME280;1639;42.804;23.342;2023-02-02T00:44:25;74134.78;;;-148.52;71.24
3254;BME280;1639;42.804;23.342;2023-02-02T00:47:09;74130.66;;;-148.52;71.18
3254;BME280;1639;42.804;23.342;2023-02-02T00:49:35;74118.22;;;-148.52;70.89
3254;BME280;1639;42.804;23.342;2023-02-02T00:52:00;74128.56;;;-148.52;70.83
3254;BME280;1639;42.804;23.342;2023-02-02T00:54:26;74122.38;;;-148.52;70.71
3254;BME280;1639;42.804;23.342;2023-02-02T00:56:52;74124.44;;;-148.52;70.89
3254;BME280;1639;42.804;23.342;2023-02-02T00:59:17;74116.16;;;-148.52;70.05
3254;BME280;1639;42.804;23.342;2023-02-02T01:01:43;74118.22;;;-148.52;70.13
3254;BME280;1639;42.804;23.342;2023-02-02T01:04:08;74118.22;;;-148.52;69.75
3254;BME280;1639;42.804;23.342;2023-02-02T01:06:34;74120.31;;;-148.52;69.96
3254;BME280;1639;42.804;23.342;2023-02-02T01:09:00;74120.31;;;-148.52;69.84
3254;BME280;1639;42.804;23.342;2023-02-02T01:11:25;74130.66;;;-148.52;70.61
3254;BME280;1639;42.804;23.342;2023-02-02T01:13:51;74126.50;;;-148.52;70.95
3254;BME280;1639;42.804;23.342;2023-02-02T01:16:16;74134.78;;;-148.52;71.43
3254;BME280;1639;42.804;23.342;2023-02-02T01:18:42;74136.84;;;-148.52;71.96
3254;BME280;1639;42.804;23.342;2023-02-02T01:21:09;74147.19;;;-148.52;72.50
3254;BME280;1639;42.804;23.342;2023-02-02T01:23:36;74136.84;;;-148.52;72.18
3254;BME280;1639;42.804;23.342;2023-02-02T01:26:04;74124.44;;;-148.52;71.37
3254;BME280;1639;42.804;23.342;2023-02-02T01:28:30;74134.78;;;-148.52;71.24
3254;BME280;1639;42.804;23.342;2023-02-02T01:30:56;74151.34;;;-148.52;71.82
3254;BME280;1639;42.804;23.342;2023-02-02T01:33:22;74172.03;;;-148.52;72.32
3254;BME280;1639;42.804;23.342;2023-02-02T01:35:50;74192.72;;;-148.52;73.28
3254;BME280;1639;42.804;23.342;2023-02-02T01:38:16;74198.91;;;-148.52;73.61
3254;BME280;1639;42.804;23.342;2023-02-02T01:40:50;74215.47;;;-148.52;74.14
3254;BME280;1639;42.804;23.342;2023-02-02T01:43:48;74221.66;;;-148.52;75.28
3254;BME280;1639;42.804;23.342;2023-02-02T01:46:24;74234.09;;;-148.52;76.39
3254;BME280;1639;42.804;23.342;2023-02-02T01:48:58;74244.44;;;-148.52;77.12
3254;BME280;1639;42.804;23.342;2023-02-02T01:51:30;74250.63;;;-148.52;78.42
3254;BME280;1639;42.804;23.342;2023-02-02T01:53:57;74267.19;;;-148.52;79.88
3254;BME280;1639;42.804;23.342;2023-02-02T01:56:29;74260.97;;;-148.52;80.35
3254;BME280;1639;42.804;23.342;2023-02-02T01:58:57;74250.63;;;-148.52;80.23
3254;BME280;1639;42.804;23.342;2023-02-02T02:01:23;74248.56;;;-148.52;80.29
3254;BME280;1639;42.804;23.342;2023-02-02T02:03:49;74254.78;;;-148.52;80.71
3254;BME280;1639;42.804;23.342;2023-02-02T02:06:16;74265.13;;;-148.52;80.17
3254;BME280;1639;42.804;23.342;2023-02-02T02:09:00;74275.47;;;-148.52;80.84
3254;BME280;1639;42.804;23.342;2023-02-02T02:11:28;74275.47;;;-148.52;81.80
3254;BME280;1639;42.804;23.342;2023-02-02T02:13:55;74273.41;;;-148.52;81.47
3254;BME280;1639;42.804;23.342;2023-02-02T02:16:54;74279.59;;;-148.52;81.05
3254;BME280;1639;42.804;23.342;2023-02-02T02:26:17;74277.53;;;-148.52;80.60
3254;BME280;1639;42.804;23.342;2023-02-02T02:35:12;74296.16;;;-148.52;82.21
3254;BME280;1639;42.804;23.342;2023-02-02T02:37:47;74287.88;;;-148.52;81.73
3254;BME280;1639;42.804;23.342;2023-02-02T02:40:25;74294.09;;;-148.52;81.90
3254;BME280;1639;42.804;23.342;2023-02-02T02:43:08;74296.16;;;-148.52;82.03
3254;BME280;1639;42.804;23.342;2023-02-02T02:45:37;74294.09;;;-148.52;81.93
3254;BME280;1639;42.804;23.342;2023-02-02T02:48:03;74294.09;;;-148.52;82.04
3254;BME280;1639;42.804;23.342;2023-02-02T02:50:29;74300.28;;;-148.52;82.07
3254;BME280;1639;42.804;23.342;2023-02-02T02:53:00;74296.16;;;-148.52;82.30
3254;BME280;1639;42.804;23.342;2023-02-02T02:55:30;74300.28;;;-148.52;82.27
3254;BME280;1639;42.804;23.342;2023-02-02T02:58:08;74312.69;;;-148.52;82.98
3254;BME280;1639;42.804;23.342;2023-02-02T03:11:03;74339.59;;;-148.52;83.11
3254;BME280;1639;42.804;23.342;2023-02-02T03:13:30;74327.19;;;-148.52;81.42
3254;BME280;1639;42.804;23.342;2023-02-02T03:15:56;74354.06;;;-148.52;80.71
3254;BME280;1639;42.804;23.342;2023-02-02T03:18:25;74378.91;;;-148.52;83.39
3254;BME280;1639;42.804;23.342;2023-02-02T03:20:51;74403.72;;;-148.52;84.27
3254;BME280;1639;42.804;23.342;2023-02-02T03:23:16;74391.31;;;-148.52;86.27
3254;BME280;1639;42.804;23.342;2023-02-02T03:25:42;74399.59;;;-148.52;85.91
3254;BME280;1639;42.804;23.342;2023-02-02T03:28:08;74399.59;;;-148.52;88.98
3254;BME280;1639;42.804;23.342;2023-02-02T03:30:33;74387.19;;;-148.52;87.56
3254;BME280;1639;42.804;23.342;2023-02-02T03:32:59;74405.81;;;-148.52;87.01
3254;BME280;1639;42.804;23.342;2023-02-02T03:35:24;74401.66;;;-148.52;87.28
3254;BME280;1639;42.804;23.342;2023-02-02T03:37:50;74407.88;;;-148.52;86.77
3254;BME280;1639;42.804;23.342;2023-02-02T03:40:16;74405.81;;;-148.52;86.15
3254;BME280;1639;42.804;23.342;2023-02-02T03:42:41;74447.19;;;-148.52;89.34
3254;BME280;1639;42.804;23.342;2023-02-02T03:45:07;74432.69;;;-148.52;90.39
3254;BME280;1639;42.804;23.342;2023-02-02T03:47:32;74451.31;;;-148.52;93.27
3254;BME280;1639;42.804;23.342;2023-02-02T03:49:58;74438.91;;;-148.52;94.69
3254;BME280;1639;42.804;23.342;2023-02-02T03:52:24;74432.69;;;-148.52;92.96
3254;BME280;1639;42.804;23.342;2023-02-02T03:54:49;74445.13;;;-148.52;94.31
3254;BME280;1639;42.804;23.342;2023-02-02T03:57:15;74407.88;;;-148.52;94.50
3254;BME280;1639;42.804;23.342;2023-02-02T03:59:41;74401.66;;;-148.52;91.77
3254;BME280;1639;42.804;23.342;2023-02-02T04:02:06;74401.66;;;-148.52;90.39
3254;BME280;1639;42.804;23.342;2023-02-02T04:04:32;74399.59;;;-148.52;89.90
3254;BME280;1639;42.804;23.342;2023-02-02T04:06:57;74395.47;;;-148.52;89.25
3254;BME280;1639;42.804;23.342;2023-02-02T04:09:23;74399.59;;;-148.52;88.79
3254;BME280;1639;42.804;23.342;2023-02-02T04:11:49;74397.53;;;-148.52;89.79
3254;BME280;1639;42.804;23.342;2023-02-02T04:14:14;74393.38;;;-148.52;88.35
3254;BME280;1639;42.804;23.342;2023-02-02T04:16:40;74401.66;;;-148.52;86.92
3254;BME280;1639;42.804;23.342;2023-02-02T04:19:05;74416.16;;;-148.52;86.54
3254;BME280;1639;42.804;23.342;2023-02-02T04:21:30;74420.28;;;-148.52;85.76
3254;BME280;1639;42.804;23.342;2023-02-02T04:23:56;74418.22;;;-148.52;85.32
3254;BME280;1639;42.804;23.342;2023-02-02T04:26:22;74412.00;;;-148.52;84.56
3254;BME280;1639;42.804;23.342;2023-02-02T04:28:51;74426.50;;;-148.52;83.72
3254;BME280;1639;42.804;23.342;2023-02-02T04:31:16;74445.13;;;-148.52;84.37
3254;BME280;1639;42.804;23.342;2023-02-02T04:33:42;74449.25;;;-148.52;84.19
3254;BME280;1639;42.804;23.342;2023-02-02T04:36:07;74451.31;;;-148.52;84.52
3254;BME280;1639;42.804;23.342;2023-02-02T04:38:33;74451.31;;;-148.52;83.40
3254;BME280;1639;42.804;23.342;2023-02-02T04:41:05;74461.66;;;-148.52;83.42
3254;BME280;1639;42.804;23.342;2023-02-02T04:43:34;74480.28;;;-148.52;83.87
3254;BME280;1639;42.804;23.342;2023-02-02T04:45:59;74488.56;;;-148.52;85.05
3254;BME280;1639;42.804;23.342;2023-02-02T04:48:25;74498.91;;;-148.52;84.75
3254;BME280;1639;42.804;23.342;2023-02-02T04:50:57;74503.03;;;-148.52;84.30
3254;BME280;1639;42.804;23.342;2023-02-02T04:53:23;74492.69;;;-148.52;84.99
3254;BME280;1639;42.804;23.342;2023-02-02T04:55:48;74505.13;;;-148.52;85.55
3254;BME280;1639;42.804;23.342;2023-02-02T04:58:13;74486.50;;;-148.52;85.66
3254;BME280;1639;42.804;23.342;2023-02-02T05:00:39;74486.50;;;-148.52;84.98
3254;BME280;1639;42.804;23.342;2023-02-02T05:03:04;74494.78;;;-148.52;83.48
3254;BME280;1639;42.804;23.342;2023-02-02T05:05:29;74498.91;;;-148.52;83.52
3254;BME280;1639;42.804;23.342;2023-02-02T05:07:55;74538.22;;;-148.52;83.83
3254;BME280;1639;42.804;23.342;2023-02-02T05:10:20;74573.38;;;-148.52;89.78
3254;BME280;1639;42.804;23.342;2023-02-02T05:12:46;74548.56;;;-148.52;93.90
3254;BME280;1639;42.804;23.342;2023-02-02T05:15:11;74540.28;;;-148.52;89.94
3254;BME280;1639;42.804;23.342;2023-02-02T05:17:36;74538.22;;;-148.52;90.83
3254;BME280;1639;42.804;23.342;2023-02-02T05:20:02;74536.16;;;-148.52;88.99
3254;BME280;1639;42.804;23.342;2023-02-02T05:22:27;74534.06;;;-148.52;87.35
3254;BME280;1639;42.804;23.342;2023-02-02T05:24:53;74534.06;;;-148.52;86.51
3254;BME280;1639;42.804;23.342;2023-02-02T05:27:19;74540.28;;;-148.52;87.27
3254;BME280;1639;42.804;23.342;2023-02-02T05:29:46;74540.28;;;-148.52;87.95
3254;BME280;1639;42.804;23.342;2023-02-02T05:32:11;74529.94;;;-148.52;87.11
3254;BME280;1639;42.804;23.342;2023-02-02T05:34:36;74532.00;;;-148.52;84.82
3254;BME280;1639;42.804;23.342;2023-02-02T05:37:02;74529.94;;;-148.52;84.89
3254;BME280;1639;42.804;23.342;2023-02-02T05:39:27;74529.94;;;-148.52;84.06
3254;BME280;1639;42.804;23.342;2023-02-02T05:41:53;74527.88;;;-148.52;84.36
3254;BME280;1639;42.804;23.342;2023-02-02T05:44:18;74542.34;;;-148.52;83.95
3254;BME280;1639;42.804;23.342;2023-02-02T05:46:44;74534.06;;;-148.52;85.07
3254;BME280;1639;42.804;23.342;2023-02-02T05:49:13;74523.72;;;-148.52;84.86
3254;BME280;1639;42.804;23.342;2023-02-02T05:51:44;74511.31;;;-148.52;85.31
3254;BME280;1639;42.804;23.342;2023-02-02T05:54:10;74494.78;;;-148.52;87.46
3254;BME280;1639;42.804;23.342;2023-02-02T05:56:36;74482.34;;;-148.52;87.57
3254;BME280;1639;42.804;23.342;2023-02-02T05:59:01;74461.66;;;-148.52;87.79
3254;BME280;1639;42.804;23.342;2023-02-02T06:01:31;74449.25;;;-148.52;86.51
3254;BME280;1639;42.804;23.342;2023-02-02T06:03:57;74432.69;;;-148.52;85.85
3254;BME280;1639;42.804;23.342;2023-02-02T06:06:23;74412.00;;;-148.52;85.17
3254;BME280;1639;42.804;23.342;2023-02-02T06:08:48;74407.88;;;-148.52;84.24
3254;BME280;1639;42.804;23.342;2023-02-02T06:11:15;74397.53;;;-148.52;83.22
3254;BME280;1639;42.804;23.342;2023-02-02T06:13:41;74397.53;;;-148.52;82.92
3254;BME280;1639;42.804;23.342;2023-02-02T06:16:07;74389.25;;;-148.52;82.36
3254;BME280;1639;42.804;23.342;2023-02-02T06:18:33;74387.19;;;-148.52;82.57
3254;BME280;1639;42.804;23.342;2023-02-02T06:21:00;74383.03;;;-148.52;81.11
3254;BME280;1639;42.804;23.342;2023-02-02T06:23:26;74370.63;;;-148.52;80.94
3254;BME280;1639;42.804;23.342;2023-02-02T06:25:52;74358.22;;;-148.52;80.16
3254;BME280;1639;42.804;23.342;2023-02-02T06:28:18;74352.00;;;-148.52;79.25
3254;BME280;1639;42.804;23.342;2023-02-02T06:30:43;74352.00;;;-148.52;79.03
3254;BME280;1639;42.804;23.342;2023-02-02T06:33:08;74362.34;;;-148.52;78.88
3254;BME280;1639;42.804;23.342;2023-02-02T06:35:34;74360.28;;;-148.52;78.77
3254;BME280;1639;42.804;23.342;2023-02-02T06:37:59;74339.59;;;-148.52;78.84
3254;BME280;1639;42.804;23.342;2023-02-02T06:40:26;74341.66;;;-148.52;78.13
3254;BME280;1639;42.804;23.342;2023-02-02T06:42:59;74337.53;;;-148.52;78.09
3254;BME280;1639;42.804;23.342;2023-02-02T06:45:25;74333.38;;;-148.52;77.65
3254;BME280;1639;42.804;23.342;2023-02-02T06:47:51;74329.25;;;-148.52;77.48
3254;BME280;1639;42.804;23.342;2023-02-02T06:50:17;74320.97;;;-148.52;77.32
3254;BME280;1639;42.804;23.342;2023-02-02T06:52:49;74310.63;;;-148.52;76.74
3254;BME280;1639;42.804;23.342;2023-02-02T06:55:16;74308.56;;;-148.52;75.96
3254;BME280;1639;42.804;23.342;2023-02-02T06:57:41;74308.56;;;-148.52;75.81
3254;BME280;1639;42.804;23.342;2023-02-02T07:00:07;74296.16;;;-148.52;75.83
3254;BME280;1639;42.804;23.342;2023-02-02T07:02:33;74300.28;;;-148.52;75.02
3254;BME280;1639;42.804;23.342;2023-02-02T07:04:59;74292.00;;;-148.52;74.54
3254;BME280;1639;42.804;23.342;2023-02-02T07:07:25;74300.28;;;-148.52;74.94
3254;BME280;1639;42.804;23.342;2023-02-02T07:09:50;74312.69;;;-148.52;74.85
3254;BME280;1639;42.804;23.342;2023-02-02T07:12:15;74325.13;;;-148.52;75.58
3254;BME280;1639;42.804;23.342;2023-02-02T07:14:44;74316.84;;;-148.52;76.09
3254;BME280;1639;42.804;23.342;2023-02-02T07:17:09;74308.56;;;-148.52;75.71
3254;BME280;1639;42.804;23.342;2023-02-02T07:19:35;74300.28;;;-148.52;75.46
3254;BME280;1639;42.804;23.342;2023-02-02T07:22:00;74300.28;;;-148.52;75.19
3254;BME280;1639;42.804;23.342;2023-02-02T07:24:25;74308.56;;;-148.52;74.49
3254;BME280;1639;42.804;23.342;2023-02-02T07:26:52;74296.16;;;-148.52;74.61
3254;BME280;1639;42.804;23.342;2023-02-02T07:29:17;74294.09;;;-148.52;73.39
3254;BME280;1639;42.804;23.342;2023-02-02T07:31:42;74292.00;;;-148.52;73.61
3254;BME280;1639;42.804;23.342;2023-02-02T07:34:08;74283.75;;;-148.52;72.99
3254;BME280;1639;42.804;23.342;2023-02-02T07:36:34;74271.31;;;-148.52;72.76
3254;BME280;1639;42.804;23.342;2023-02-02T07:39:00;74260.97;;;-148.52;72.08
3254;BME280;1639;42.804;23.342;2023-02-02T07:41:28;74269.25;;;-148.52;72.18
3254;BME280;1639;42.804;23.342;2023-02-02T07:43:53;74260.97;;;-148.52;71.65
3254;BME280;1639;42.804;23.342;2023-02-02T07:46:19;74213.41;;;-148.52;71.02
3254;BME280;1639;42.804;23.342;2023-02-02T07:48:45;74089.28;;;-148.52;67.98
3254;BME280;1639;42.804;23.342;2023-02-02T07:51:13;73977.56;;;-148.52;63.94
3254;BME280;1639;42.804;23.342;2023-02-02T07:53:45;73890.66;;;-148.52;61.94
3254;BME280;1639;42.804;23.342;2023-02-02T07:56:16;73832.75;;;-148.52;59.33
3254;BME280;1639;42.804;23.342;2023-02-02T07:58:42;73810.00;;;-148.52;58.37
3254;BME280;1639;42.804;23.342;2023-02-02T08:01:09;73758.28;;;-148.52;57.93
3254;BME280;1639;42.804;23.342;2023-02-02T08:03:37;73756.22;;;-148.52;56.29
3254;BME280;1639;42.804;23.342;2023-02-02T08:06:17;73733.44;;;-148.52;55.88
3254;BME280;1639;42.804;23.342;2023-02-02T08:08:44;73729.31;;;-148.52;55.02
3254;BME280;1639;42.804;23.342;2023-02-02T08:11:11;73698.28;;;-148.52;54.16
3254;BME280;1639;42.804;23.342;2023-02-02T08:13:38;73725.19;;;-148.52;53.78
3254;BME280;1639;42.804;23.342;2023-02-02T08:16:05;73764.47;;;-148.52;54.56
3254;BME280;1639;42.804;23.342;2023-02-02T08:18:31;73810.00;;;-148.52;55.84
3254;BME280;1639;42.804;23.342;2023-02-02T08:20:58;73828.59;;;-148.52;56.90
3254;BME280;1639;42.804;23.342;2023-02-02T08:23:25;73838.94;;;-148.52;57.03
3254;BME280;1639;42.804;23.342;2023-02-02T08:25:51;73847.22;;;-148.52;55.65
3254;BME280;1639;42.804;23.342;2023-02-02T08:28:17;73853.44;;;-148.52;56.30
3254;BME280;1639;42.804;23.342;2023-02-02T08:30:43;73818.25;;;-148.52;56.37
3254;BME280;1639;42.804;23.342;2023-02-02T08:33:09;73764.47;;;-148.52;54.36
3254;BME280;1639;42.804;23.342;2023-02-02T08:35:39;73669.31;;;-148.52;53.69
3254;BME280;1639;42.804;23.342;2023-02-02T08:38:05;73609.34;;;-148.52;50.68
3254;BME280;1639;42.804;23.342;2023-02-02T08:40:31;73584.50;;;-148.52;50.05
3254;BME280;1639;42.804;23.342;2023-02-02T08:42:57;73572.09;;;-148.52;48.91
3254;BME280;1639;42.804;23.342;2023-02-02T08:45:23;73543.16;;;-148.52;48.85
3254;BME280;1639;42.804;23.342;2023-02-02T08:47:49;73495.56;;;-148.52;48.08
3254;BME280;1639;42.804;23.342;2023-02-02T08:50:15;73481.09;;;-148.52;47.36
3254;BME280;1639;42.804;23.342;2023-02-02T08:52:41;73448.00;;;-148.52;47.04
3254;BME280;1639;42.804;23.342;2023-02-02T08:55:06;73416.97;;;-148.52;47.10
3254;BME280;1639;42.804;23.342;2023-02-02T08:57:32;73431.44;;;-148.52;45.52
3254;BME280;1639;42.804;23.342;2023-02-02T08:59:58;73437.66;;;-148.52;45.36
3254;BME280;1639;42.804;23.342;2023-02-02T09:02:23;73431.44;;;-148.52;46.20
3254;BME280;1639;42.804;23.342;2023-02-02T09:04:49;73452.13;;;-148.52;46.27
3254;BME280;1639;42.804;23.342;2023-02-02T09:07:14;73419.03;;;-148.52;46.65
3254;BME280;1639;42.804;23.342;2023-02-02T09:09:40;73414.91;;;-148.52;46.04
3254;BME280;1639;42.804;23.342;2023-02-02T09:12:05;73425.25;;;-148.52;45.35
3254;BME280;1639;42.804;23.342;2023-02-02T09:14:31;73441.78;;;-148.52;45.81
3254;BME280;1639;42.804;23.342;2023-02-02T09:16:56;73454.19;;;-148.52;46.68
3254;BME280;1639;42.804;23.342;2023-02-02T09:19:22;73489.38;;;-148.52;47.37
3254;BME280;1639;42.804;23.342;2023-02-02T09:21:50;73497.63;;;-148.52;47.95
3254;BME280;1639;42.804;23.342;2023-02-02T09:24:17;73476.97;;;-148.52;47.68
3254;BME280;1639;42.804;23.342;2023-02-02T09:26:43;73468.69;;;-148.52;48.80
3254;BME280;1639;42.804;23.342;2023-02-02T09:29:14;73448.00;;;-148.52;49.11
3254;BME280;1639;42.804;23.342;2023-02-02T09:31:40;73429.38;;;-148.52;48.94
3254;BME280;1639;42.804;23.342;2023-02-02T09:34:11;73421.09;;;-148.52;48.67
3254;BME280;1639;42.804;23.342;2023-02-02T09:36:37;73431.44;;;-148.52;48.59
3254;BME280;1639;42.804;23.342;2023-02-02T09:39:04;73448.00;;;-148.52;48.49
3254;BME280;1639;42.804;23.342;2023-02-02T09:44:19;73423.19;;;-148.52;47.93
3254;BME280;1639;42.804;23.342;2023-02-02T09:52:33;73458.34;;;-148.52;49.99
3254;BME280;1639;42.804;23.342;2023-02-02T09:57:54;73497.63;;;-148.52;50.40
3254;BME280;1639;42.804;23.342;2023-02-02T10:00:33;73487.31;;;-148.52;51.61
3254;BME280;1639;42.804;23.342;2023-02-02T10:03:08;73497.63;;;-148.52;50.63
3254;BME280;1639;42.804;23.342;2023-02-02T10:05:48;73485.22;;;-148.52;51.41
3254;BME280;1639;42.804;23.342;2023-02-02T10:08:37;73427.31;;;-148.52;51.60
3254;BME280;1639;42.804;23.342;2023-02-02T10:11:29;73377.66;;;-148.52;50.58
3254;BME280;1639;42.804;23.342;2023-02-02T10:14:02;73344.56;;;-148.52;48.97
3254;BME280;1639;42.804;23.342;2023-02-02T10:16:32;73348.72;;;-148.52;48.51
3254;BME280;1639;42.804;23.342;2023-02-02T10:19:01;73340.44;;;-148.52;48.97
3254;BME280;1639;42.804;23.342;2023-02-02T10:21:42;73340.44;;;-148.52;47.55
3254;BME280;1639;42.804;23.342;2023-02-02T10:24:17;73344.56;;;-148.52;48.99
3254;BME280;1639;42.804;23.342;2023-02-02T10:26:49;73344.56;;;-148.52;48.50
3254;BME280;1639;42.804;23.342;2023-02-02T10:37:06;73332.16;;;-148.52;49.41
3254;BME280;1639;42.804;23.342;2023-02-02T10:44:56;73294.94;;;-148.52;47.10
3254;BME280;1639;42.804;23.342;2023-02-02T10:47:27;73301.13;;;-148.52;47.48
3254;BME280;1639;42.804;23.342;2023-02-02T10:50:18;73299.06;;;-148.52;46.85
3254;BME280;1639;42.804;23.342;2023-02-02T10:52:51;73288.72;;;-148.52;47.48
3254;BME280;1639;42.804;23.342;2023-02-02T11:03:17;73328.03;;;-148.52;46.56
3254;BME280;1639;42.804;23.342;2023-02-02T11:05:44;73332.16;;;-148.52;47.27
3254;BME280;1639;42.804;23.342;2023-02-02T11:10:54;73336.31;;;-148.52;48.81
3254;BME280;1639;42.804;23.342;2023-02-02T11:13:27;73317.69;;;-148.52;48.31
3254;BME280;1639;42.804;23.342;2023-02-02T11:16:18;73311.47;;;-148.52;48.48
3254;BME280;1639;42.804;23.342;2023-02-02T11:18:44;73315.63;;;-148.52;47.63
3254;BME280;1639;42.804;23.342;2023-02-02T11:21:27;73309.41;;;-148.52;48.80
3254;BME280;1639;42.804;23.342;2023-02-02T11:24:00;73323.91;;;-148.52;48.82
3254;BME280;1639;42.804;23.342;2023-02-02T11:26:40;73319.75;;;-148.52;48.48
3254;BME280;1639;42.804;23.342;2023-02-02T11:29:17;73321.81;;;-148.52;47.87
3254;BME280;1639;42.804;23.342;2023-02-02T11:31:44;73319.75;;;-148.52;49.67
3254;BME280;1639;42.804;23.342;2023-02-02T11:34:22;73336.31;;;-148.52;50.25
3254;BME280;1639;42.804;23.342;2023-02-02T11:37:11;73344.56;;;-148.52;50.83
3254;BME280;1639;42.804;23.342;2023-02-02T11:39:42;73348.72;;;-148.52;50.96
3254;BME280;1639;42.804;23.342;2023-02-02T11:44:42;73361.13;;;-148.52;52.03
3254;BME280;1639;42.804;23.342;2023-02-02T11:47:17;73352.84;;;-148.52;51.67
3254;BME280;1639;42.804;23.342;2023-02-02T11:49:44;73352.84;;;-148.52;52.04
3254;BME280;1639;42.804;23.342;2023-02-02T11:52:17;73348.72;;;-148.52;52.87
3254;BME280;1639;42.804;23.342;2023-02-02T11:54:52;73332.16;;;-148.52;52.26
3254;BME280;1639;42.804;23.342;2023-02-02T11:57:21;73328.03;;;-148.52;51.24
3254;BME280;1639;42.804;23.342;2023-02-02T11:59:50;73325.97;;;-148.52;50.27
3254;BME280;1639;42.804;23.342;2023-02-02T12:04:47;73307.34;;;-148.52;49.80
3254;BME280;1639;42.804;23.342;2023-02-02T12:07:21;73294.94;;;-148.52;49.92
3254;BME280;1639;42.804;23.342;2023-02-02T12:09:48;73301.13;;;-148.52;49.75
3254;BME280;1639;42.804;23.342;2023-02-02T12:12:18;73311.47;;;-148.52;49.90
3254;BME280;1639;42.804;23.342;2023-02-02T12:14:57;73303.22;;;-148.52;49.01
3254;BME280;1639;42.804;23.342;2023-02-02T12:17:43;73280.47;;;-148.52;48.95
3254;BME280;1639;42.804;23.342;2023-02-02T12:22:57;73245.28;;;-148.52;45.39
3254;BME280;1639;42.804;23.342;2023-02-02T12:28:35;73232.88;;;-148.52;43.08
3254;BME280;1639;42.804;23.342;2023-02-02T12:33:50;73268.03;;;-148.52;43.56
3254;BME280;1639;42.804;23.342;2023-02-02T12:47:57;73280.47;;;-148.52;45.08
3254;BME280;1639;42.804;23.342;2023-02-02T12:50:29;73286.66;;;-148.52;44.48
3254;BME280;1639;42.804;23.342;2023-02-02T12:55:36;73286.66;;;-148.52;42.87
3254;BME280;1639;42.804;23.342;2023-02-02T13:03:30;73253.56;;;-148.52;45.50
3254;BME280;1639;42.804;23.342;2023-02-02T13:09:08;73270.13;;;-148.52;45.59
3254;BME280;1639;42.804;23.342;2023-02-02T13:11:47;73286.66;;;-148.52;45.52
3254;BME280;1639;42.804;23.342;2023-02-02T13:14:24;73294.94;;;-148.52;45.41
3254;BME280;1639;42.804;23.342;2023-02-02T13:17:15;73299.06;;;-148.52;45.72
3254;BME280;1639;42.804;23.342;2023-02-02T13:19:47;73305.28;;;-148.52;47.17
3254;BME280;1639;42.804;23.342;2023-02-02T13:22:22;73311.47;;;-148.52;46.47
3254;BME280;1639;42.804;23.342;2023-02-02T13:24:52;73311.47;;;-148.52;45.51
3254;BME280;1639;42.804;23.342;2023-02-02T13:27:20;73299.06;;;-148.52;46.02
3254;BME280;1639;42.804;23.342;2023-02-02T13:29:51;73290.81;;;-148.52;47.70
3254;BME280;1639;42.804;23.342;2023-02-02T13:34:54;73299.06;;;-148.52;48.46
3254;BME280;1639;42.804;23.342;2023-02-02T13:37:30;73294.94;;;-148.52;48.78
3254;BME280;1639;42.804;23.342;2023-02-02T13:45:34;73299.06;;;-148.52;47.53
3254;BME280;1639;42.804;23.342;2023-02-02T13:50:58;73278.38;;;-148.52;47.84
3254;BME280;1639;42.804;23.342;2023-02-02T13:58:54;73305.28;;;-148.52;48.50
3254;BME280;1639;42.804;23.342;2023-02-02T14:01:23;73313.56;;;-148.52;48.29
3254;BME280;1639;42.804;23.342;2023-02-02T14:03:52;73330.09;;;-148.52;48.60
3254;BME280;1639;42.804;23.342;2023-02-02T14:06:20;73348.72;;;-148.52;48.62
3254;BME280;1639;42.804;23.342;2023-02-02T14:11:20;73359.06;;;-148.52;49.74
3254;BME280;1639;42.804;23.342;2023-02-02T14:13:49;73363.19;;;-148.52;50.26
3254;BME280;1639;42.804;23.342;2023-02-02T14:16:47;73369.41;;;-148.52;50.55
3254;BME280;1639;42.804;23.342;2023-02-02T14:24:37;73423.19;;;-148.52;52.19
3254;BME280;1639;42.804;23.342;2023-02-02T14:37:55;73716.91;;;-148.52;71.14
3254;BME280;1639;42.804;23.342;2023-02-02T14:40:46;73754.13;;;-148.52;74.12
3254;BME280;1639;42.804;23.342;2023-02-02T14:43:41;73791.38;;;-148.52;78.23
3254;BME280;1639;42.804;23.342;2023-02-02T14:51:24;73869.97;;;-148.52;83.80
3254;BME280;1639;42.804;23.342;2023-02-02T14:53:57;73876.19;;;-148.52;86.13
3254;BME280;1639;42.804;23.342;2023-02-02T14:56:48;73882.41;;;-148.52;87.49
3254;BME280;1639;42.804;23.342;2023-02-02T14:59:18;73886.53;;;-148.52;84.51
3254;BME280;1639;42.804;23.342;2023-02-02T15:01:55;73892.75;;;-148.52;81.61
3254;BME280;1639;42.804;23.342;2023-02-02T15:04:25;73890.66;;;-148.52;78.95
3254;BME280;1639;42.804;23.342;2023-02-02T15:06:51;73913.44;;;-148.52;72.99
3254;BME280;1639;42.804;23.342;2023-02-02T15:14:40;73996.16;;;-148.52;81.41
3254;BME280;1639;42.804;23.342;2023-02-02T15:20:15;74004.44;;;-148.52;83.18
3254;BME280;1639;42.804;23.342;2023-02-02T15:25:24;74012.72;;;-148.52;85.41